createdAt,value
2019-03-21T00:00:28.188Z,0
2019-03-21T00:01:08.791Z,0
2019-03-21T00:01:49.361Z,0
2019-03-21T00:02:29.941Z,0
2019-03-21T00:03:10.495Z,0
2019-03-21T00:03:51.065Z,0
2019-03-21T00:04:31.622Z,0
2019-03-21T00:05:12.196Z,0
2019-03-21T00:05:52.754Z,0
2019-03-21T00:06:33.337Z,0
2019-03-21T00:07:13.898Z,0
2019-03-21T00:07:54.477Z,0
2019-03-21T00:08:35.127Z,0
2019-03-21T00:09:15.628Z,0
2019-03-21T00:09:56.202Z,0
2019-03-21T00:10:36.827Z,0
2019-03-21T00:11:17.410Z,0
2019-03-21T00:11:57.984Z,0
2019-03-21T00:12:38.571Z,0
2019-03-21T00:13:19.157Z,0
2019-03-21T00:14:06.785Z,0
2019-03-21T00:14:40.293Z,0
2019-03-21T00:15:20.857Z,0
2019-03-21T00:16:01.418Z,0
2019-03-21T00:16:41.983Z,0
2019-03-21T00:17:22.547Z,0
2019-03-21T00:18:03.124Z,0
2019-03-21T00:18:43.702Z,0
2019-03-21T00:19:24.311Z,0
2019-03-21T00:20:04.957Z,0
2019-03-21T00:20:45.537Z,0
2019-03-21T00:21:26.101Z,0
2019-03-21T00:22:06.665Z,0
2019-03-21T00:22:47.221Z,0
2019-03-21T00:23:27.781Z,0
2019-03-21T00:24:08.348Z,0
2019-03-21T00:24:48.914Z,0
2019-03-21T00:25:29.505Z,0
2019-03-21T00:26:10.079Z,0
2019-03-21T00:26:50.658Z,0
2019-03-21T00:27:31.234Z,0
2019-03-21T00:28:11.798Z,0
2019-03-21T00:28:52.350Z,0
2019-03-21T00:29:32.918Z,0
2019-03-21T00:30:13.510Z,0
2019-03-21T00:30:54.060Z,0
2019-03-21T00:31:34.635Z,0
2019-03-21T00:32:15.193Z,0
2019-03-21T00:32:55.805Z,0
2019-03-21T00:33:36.355Z,0
2019-03-21T00:34:16.928Z,0
2019-03-21T00:34:57.581Z,0
2019-03-21T00:35:38.668Z,0
2019-03-21T00:36:18.693Z,0
2019-03-21T00:36:59.271Z,0
2019-03-21T00:37:39.833Z,0
2019-03-21T00:38:20.401Z,0
2019-03-21T00:39:00.974Z,0
2019-03-21T00:39:41.540Z,0
2019-03-21T00:40:22.114Z,0
2019-03-21T00:41:02.674Z,0
2019-03-21T00:41:43.251Z,0
2019-03-21T00:42:23.809Z,0
2019-03-21T00:43:04.522Z,0
2019-03-21T00:43:45.085Z,0
2019-03-21T00:44:25.652Z,0
2019-03-21T00:45:06.226Z,0
2019-03-21T00:45:46.782Z,0
2019-03-21T00:46:27.347Z,0
2019-03-21T00:47:07.918Z,0
2019-03-21T00:47:48.505Z,0
2019-03-21T00:48:29.094Z,0
2019-03-21T00:49:09.641Z,0
2019-03-21T00:49:50.214Z,0
2019-03-21T00:50:30.769Z,0
2019-03-21T00:51:11.335Z,0
2019-03-21T00:51:51.927Z,0
2019-03-21T00:52:32.483Z,0
2019-03-21T00:53:13.079Z,0
2019-03-21T00:53:53.642Z,0
2019-03-21T00:54:34.228Z,0
2019-03-21T00:55:14.813Z,0
2019-03-21T00:55:55.364Z,0
2019-03-21T00:56:35.931Z,0
2019-03-21T00:57:16.483Z,0
2019-03-21T00:57:58.579Z,0
2019-03-21T00:58:37.596Z,0
2019-03-21T00:59:18.183Z,0
2019-03-21T00:59:58.772Z,0
2019-03-21T01:00:39.343Z,0
2019-03-21T01:01:19.896Z,0
2019-03-21T01:02:00.461Z,0
2019-03-21T01:02:41.036Z,0
2019-03-21T01:03:21.592Z,0
2019-03-21T01:04:02.178Z,0
2019-03-21T01:04:42.751Z,0
2019-03-21T01:05:23.325Z,0
2019-03-21T01:06:03.890Z,0
2019-03-21T01:06:44.478Z,0
2019-03-21T01:07:25.035Z,0
2019-03-21T01:08:05.603Z,0
2019-03-21T01:08:46.171Z,0
2019-03-21T01:09:26.765Z,0
2019-03-21T01:10:07.325Z,0
2019-03-21T01:10:47.890Z,0
2019-03-21T01:11:28.498Z,0
2019-03-21T01:12:09.029Z,0
2019-03-21T01:12:49.623Z,0
2019-03-21T01:13:30.166Z,0
2019-03-21T01:14:10.745Z,0
2019-03-21T01:14:51.327Z,0
2019-03-21T01:15:31.906Z,0
2019-03-21T01:16:12.439Z,0
2019-03-21T01:16:53.034Z,0
2019-03-21T01:17:33.595Z,0
2019-03-21T01:18:14.167Z,0
2019-03-21T01:18:54.725Z,0
2019-03-21T01:19:35.292Z,0
2019-03-21T01:20:15.852Z,0
2019-03-21T01:20:56.431Z,0
2019-03-21T01:21:37.024Z,0
2019-03-21T01:22:17.598Z,0
2019-03-21T01:22:58.138Z,0
2019-03-21T01:23:38.713Z,0
2019-03-21T01:24:19.282Z,0
2019-03-21T01:24:59.851Z,0
2019-03-21T01:25:40.404Z,0
2019-03-21T01:26:20.976Z,0
2019-03-21T01:27:01.542Z,0
2019-03-21T01:27:42.106Z,0
2019-03-21T01:28:22.661Z,0
2019-03-21T01:29:03.246Z,0
2019-03-21T01:29:43.779Z,0
2019-03-21T01:30:24.346Z,0
2019-03-21T01:31:04.952Z,0
2019-03-21T01:31:45.519Z,0
2019-03-21T01:32:26.115Z,0
2019-03-21T01:33:06.662Z,0
2019-03-21T01:33:47.261Z,0
2019-03-21T01:34:27.815Z,0
2019-03-21T01:35:08.379Z,0
2019-03-21T01:35:48.958Z,0
2019-03-21T01:36:29.514Z,0
2019-03-21T01:37:10.093Z,0
2019-03-21T01:37:50.647Z,0
2019-03-21T01:38:31.237Z,0
2019-03-21T01:39:11.795Z,0
2019-03-21T01:39:52.360Z,0
2019-03-21T01:40:32.911Z,0
2019-03-21T01:41:13.483Z,0
2019-03-21T01:41:54.057Z,0
2019-03-21T01:42:34.625Z,0
2019-03-21T01:43:15.210Z,0
2019-03-21T01:43:55.780Z,0
2019-03-21T01:44:40.802Z,0
2019-03-21T01:45:16.906Z,0
2019-03-21T01:45:57.478Z,0
2019-03-21T01:46:38.076Z,0
2019-03-21T01:47:18.667Z,0
2019-03-21T01:47:59.205Z,0
2019-03-21T01:48:39.807Z,0
2019-03-21T01:49:20.345Z,0
2019-03-21T01:50:00.924Z,0
2019-03-21T01:50:41.501Z,0
2019-03-21T01:51:22.063Z,0
2019-03-21T01:52:02.631Z,0
2019-03-21T01:52:43.206Z,0
2019-03-21T01:53:23.834Z,0
2019-03-21T01:54:04.453Z,0
2019-03-21T01:54:45.036Z,0
2019-03-21T01:55:25.597Z,0
2019-03-21T01:56:06.176Z,0
2019-03-21T01:56:46.751Z,0
2019-03-21T01:57:27.794Z,0
2019-03-21T01:58:08.367Z,0
2019-03-21T01:58:48.921Z,0
2019-03-21T01:59:29.517Z,0
2019-03-21T02:00:10.096Z,0
2019-03-21T02:00:50.662Z,0
2019-03-21T02:01:31.216Z,0
2019-03-21T02:02:11.785Z,0
2019-03-21T02:02:52.348Z,0
2019-03-21T02:03:32.910Z,0
2019-03-21T02:04:13.478Z,0
2019-03-21T02:04:54.046Z,0
2019-03-21T02:05:34.594Z,0
2019-03-21T02:06:15.159Z,0
2019-03-21T02:06:55.724Z,0
2019-03-21T02:07:36.289Z,0
2019-03-21T02:08:16.851Z,0
2019-03-21T02:08:57.419Z,0
2019-03-21T02:09:37.992Z,0
2019-03-21T02:10:18.546Z,0
2019-03-21T02:10:59.105Z,0
2019-03-21T02:11:39.677Z,0
2019-03-21T02:12:20.227Z,0
2019-03-21T02:13:00.799Z,0
2019-03-21T02:13:41.346Z,0
2019-03-21T02:14:21.924Z,0
2019-03-21T02:15:02.497Z,0
2019-03-21T02:15:43.094Z,0
2019-03-21T02:16:23.664Z,0
2019-03-21T02:17:04.228Z,0
2019-03-21T02:17:44.794Z,0
2019-03-21T02:18:25.370Z,0
2019-03-21T02:19:05.940Z,0
2019-03-21T02:19:46.517Z,0
2019-03-21T02:20:27.087Z,0
2019-03-21T02:21:07.654Z,0
2019-03-21T02:21:48.234Z,0
2019-03-21T02:22:28.802Z,0
2019-03-21T02:23:09.370Z,0
2019-03-21T02:23:49.931Z,0
2019-03-21T02:24:30.489Z,0
2019-03-21T02:25:11.044Z,0
2019-03-21T02:25:51.603Z,0
2019-03-21T02:26:32.188Z,0
2019-03-21T02:27:12.729Z,0
2019-03-21T02:27:53.283Z,0
2019-03-21T02:28:33.837Z,0
2019-03-21T02:29:14.404Z,0
2019-03-21T02:29:55.052Z,0
2019-03-21T02:30:35.610Z,0
2019-03-21T02:31:16.164Z,0
2019-03-21T02:31:56.746Z,0
2019-03-21T02:32:37.313Z,0
2019-03-21T02:33:17.864Z,0
2019-03-21T02:33:58.447Z,0
2019-03-21T02:34:39.003Z,0
2019-03-21T02:35:19.569Z,0
2019-03-21T02:36:00.119Z,0
2019-03-21T02:36:40.690Z,0
2019-03-21T02:37:21.242Z,0
2019-03-21T02:38:01.832Z,0
2019-03-21T02:38:42.456Z,0
2019-03-21T02:39:22.969Z,0
2019-03-21T02:40:03.556Z,0
2019-03-21T02:40:44.168Z,0
2019-03-21T02:41:25.601Z,0
2019-03-21T02:42:05.312Z,0
2019-03-21T02:42:45.880Z,0
2019-03-21T02:43:26.445Z,0
2019-03-21T02:44:07.023Z,0
2019-03-21T02:44:47.623Z,0
2019-03-21T02:45:28.174Z,0
2019-03-21T02:46:08.740Z,0
2019-03-21T02:46:49.298Z,0
2019-03-21T02:47:29.838Z,0
2019-03-21T02:48:10.413Z,0
2019-03-21T02:48:50.953Z,0
2019-03-21T02:49:31.512Z,0
2019-03-21T02:50:12.075Z,0
2019-03-21T02:50:52.636Z,0
2019-03-21T02:51:33.201Z,0
2019-03-21T02:52:13.768Z,0
2019-03-21T02:52:54.334Z,0
2019-03-21T02:53:34.897Z,0
2019-03-21T02:54:15.451Z,0
2019-03-21T02:54:56.003Z,0
2019-03-21T02:55:36.601Z,0
2019-03-21T02:56:17.173Z,0
2019-03-21T02:56:57.727Z,0
2019-03-21T02:57:38.316Z,0
2019-03-21T02:58:18.887Z,0
2019-03-21T02:58:59.439Z,0
2019-03-21T02:59:39.997Z,0
2019-03-21T03:00:20.563Z,0
2019-03-21T03:01:01.127Z,0
2019-03-21T03:01:41.703Z,0
2019-03-21T03:02:22.261Z,0
2019-03-21T03:03:02.867Z,0
2019-03-21T03:03:43.444Z,0
2019-03-21T03:04:24.026Z,0
2019-03-21T03:05:04.576Z,0
2019-03-21T03:05:45.153Z,0
2019-03-21T03:06:25.704Z,0
2019-03-21T03:07:06.263Z,0
2019-03-21T03:07:46.831Z,0
2019-03-21T03:08:27.390Z,0
2019-03-21T03:09:07.988Z,0
2019-03-21T03:09:48.555Z,0
2019-03-21T03:10:29.107Z,0
2019-03-21T03:11:10.924Z,0
2019-03-21T03:11:50.227Z,0
2019-03-21T03:12:30.819Z,0
2019-03-21T03:13:11.403Z,0
2019-03-21T03:13:51.982Z,0
2019-03-21T03:14:32.525Z,0
2019-03-21T03:15:22.313Z,0
2019-03-21T03:15:53.647Z,0
2019-03-21T03:16:34.200Z,0
2019-03-21T03:17:14.754Z,0
2019-03-21T03:17:55.308Z,0
2019-03-21T03:18:35.870Z,0
2019-03-21T03:19:16.427Z,0
2019-03-21T03:19:57.007Z,0
2019-03-21T03:20:37.559Z,0
2019-03-21T03:21:18.117Z,0
2019-03-21T03:21:58.689Z,0
2019-03-21T03:22:39.292Z,0
2019-03-21T03:23:19.857Z,0
2019-03-21T03:24:00.415Z,0
2019-03-21T03:24:40.977Z,0
2019-03-21T03:25:21.543Z,0
2019-03-21T03:26:02.106Z,0
2019-03-21T03:26:42.668Z,0
2019-03-21T03:27:23.222Z,0
2019-03-21T03:28:03.819Z,0
2019-03-21T03:28:44.371Z,0
2019-03-21T03:29:24.944Z,0
2019-03-21T03:30:05.501Z,0
2019-03-21T03:30:46.088Z,0
2019-03-21T03:31:26.652Z,0
2019-03-21T03:32:07.232Z,0
2019-03-21T03:32:47.787Z,0
2019-03-21T03:33:28.353Z,0
2019-03-21T03:34:08.913Z,0
2019-03-21T03:34:49.487Z,0
2019-03-21T03:35:30.037Z,0
2019-03-21T03:36:10.633Z,0
2019-03-21T03:36:51.223Z,0
2019-03-21T03:37:31.782Z,0
2019-03-21T03:38:12.346Z,0
2019-03-21T03:38:52.917Z,0
2019-03-21T03:39:36.706Z,0
2019-03-21T03:40:14.047Z,0
2019-03-21T03:40:54.650Z,0
2019-03-21T03:41:35.205Z,0
2019-03-21T03:42:15.794Z,0
2019-03-21T03:42:56.374Z,0
2019-03-21T03:43:36.933Z,0
2019-03-21T03:44:17.493Z,0
2019-03-21T03:44:58.054Z,0
2019-03-21T03:45:38.886Z,0
2019-03-21T03:46:19.211Z,0
2019-03-21T03:46:59.803Z,0
2019-03-21T03:47:40.379Z,0
2019-03-21T03:48:20.987Z,0
2019-03-21T03:49:01.609Z,0
2019-03-21T03:49:42.160Z,0
2019-03-21T03:50:22.729Z,0
2019-03-21T03:51:03.296Z,0
2019-03-21T03:51:43.865Z,0
2019-03-21T03:52:24.454Z,0
2019-03-21T03:53:05.024Z,0
2019-03-21T03:53:45.582Z,0
2019-03-21T03:54:26.150Z,0
2019-03-21T03:55:06.702Z,0
2019-03-21T03:55:47.280Z,0
2019-03-21T03:56:27.850Z,0
2019-03-21T03:57:08.406Z,0
2019-03-21T03:57:49.453Z,0
2019-03-21T03:58:30.021Z,0
2019-03-21T03:59:10.576Z,0
2019-03-21T03:59:51.135Z,0
2019-03-21T04:00:31.705Z,0
2019-03-21T04:01:12.261Z,0
2019-03-21T04:01:52.825Z,0
2019-03-21T04:02:33.404Z,0
2019-03-21T04:03:13.978Z,0
2019-03-21T04:03:54.610Z,0
2019-03-21T04:04:35.162Z,0
2019-03-21T04:05:15.739Z,0
2019-03-21T04:05:56.315Z,0
2019-03-21T04:06:36.890Z,0
2019-03-21T04:07:17.466Z,0
2019-03-21T04:07:58.027Z,0
2019-03-21T04:08:38.587Z,0
2019-03-21T04:09:19.157Z,0
2019-03-21T04:09:59.717Z,0
2019-03-21T04:10:40.265Z,0
2019-03-21T04:11:20.816Z,0
2019-03-21T04:12:01.396Z,0
2019-03-21T04:12:41.958Z,0
2019-03-21T04:13:22.509Z,0
2019-03-21T04:14:03.064Z,0
2019-03-21T04:14:43.633Z,0
2019-03-21T04:15:24.204Z,0
2019-03-21T04:16:04.804Z,0
2019-03-21T04:16:45.358Z,0
2019-03-21T04:17:25.907Z,0
2019-03-21T04:18:06.458Z,0
2019-03-21T04:18:47.014Z,0
2019-03-21T04:19:27.570Z,0
2019-03-21T04:20:08.130Z,0
2019-03-21T04:20:48.695Z,0
2019-03-21T04:21:29.260Z,0
2019-03-21T04:22:09.865Z,0
2019-03-21T04:22:50.426Z,0
2019-03-21T04:23:30.991Z,0
2019-03-21T04:24:11.563Z,0
2019-03-21T04:24:52.125Z,0
2019-03-21T04:25:32.698Z,0
2019-03-21T04:26:13.285Z,0
2019-03-21T04:26:53.834Z,0
2019-03-21T04:27:34.415Z,0
2019-03-21T04:28:14.977Z,0
2019-03-21T04:28:55.545Z,0
2019-03-21T04:29:36.141Z,0
2019-03-21T04:30:16.702Z,0
2019-03-21T04:30:57.262Z,0
2019-03-21T04:31:37.820Z,0
2019-03-21T04:32:18.394Z,0
2019-03-21T04:32:58.958Z,0
2019-03-21T04:33:39.502Z,0
2019-03-21T04:34:20.053Z,0
2019-03-21T04:35:00.614Z,0
2019-03-21T04:35:41.160Z,0
2019-03-21T04:36:21.711Z,0
2019-03-21T04:37:02.286Z,0
2019-03-21T04:37:42.857Z,0
2019-03-21T04:38:23.421Z,0
2019-03-21T04:39:03.990Z,0
2019-03-21T04:39:44.573Z,0
2019-03-21T04:40:25.100Z,0
2019-03-21T04:41:05.665Z,0
2019-03-21T04:41:46.230Z,0
2019-03-21T04:42:26.785Z,0
2019-03-21T04:43:07.346Z,0
2019-03-21T04:43:47.922Z,0
2019-03-21T04:44:28.493Z,0
2019-03-21T04:45:09.055Z,0
2019-03-21T04:45:49.607Z,0
2019-03-21T04:46:30.241Z,0
2019-03-21T04:47:10.805Z,0
2019-03-21T04:47:51.372Z,0
2019-03-21T04:48:31.937Z,0
2019-03-21T04:49:12.515Z,0
2019-03-21T04:49:53.069Z,4
2019-03-21T04:50:33.633Z,4
2019-03-21T04:51:14.197Z,4
2019-03-21T04:51:54.754Z,4
2019-03-21T04:52:35.315Z,0
2019-03-21T04:53:15.873Z,0
2019-03-21T04:53:56.438Z,4
2019-03-21T04:54:37.033Z,4
2019-03-21T04:55:17.584Z,4
2019-03-21T04:55:58.161Z,4
2019-03-21T04:56:38.734Z,4
2019-03-21T04:57:19.297Z,4
2019-03-21T04:57:59.864Z,8
2019-03-21T04:58:40.465Z,4
2019-03-21T04:59:21.038Z,8
2019-03-21T05:00:03.628Z,8
2019-03-21T05:00:42.192Z,8
2019-03-21T05:01:22.832Z,8
2019-03-21T05:02:03.385Z,12
2019-03-21T05:02:43.938Z,12
2019-03-21T05:03:24.507Z,12
2019-03-21T05:04:05.056Z,12
2019-03-21T05:04:45.604Z,12
2019-03-21T05:05:26.172Z,16
2019-03-21T05:06:06.735Z,16
2019-03-21T05:06:47.288Z,20
2019-03-21T05:07:27.847Z,20
2019-03-21T05:08:08.435Z,20
2019-03-21T05:08:48.983Z,24
2019-03-21T05:09:29.541Z,20
2019-03-21T05:10:10.142Z,24
2019-03-21T05:10:50.764Z,24
2019-03-21T05:11:31.328Z,24
2019-03-21T05:12:11.890Z,28
2019-03-21T05:12:52.442Z,28
2019-03-21T05:13:33.005Z,28
2019-03-21T05:14:13.582Z,36
2019-03-21T05:14:54.154Z,36
2019-03-21T05:15:34.816Z,40
2019-03-21T05:16:15.360Z,44
2019-03-21T05:16:55.935Z,44
2019-03-21T05:17:36.479Z,44
2019-03-21T05:18:17.052Z,48
2019-03-21T05:18:57.613Z,48
2019-03-21T05:19:38.163Z,52
2019-03-21T05:20:18.740Z,56
2019-03-21T05:20:59.311Z,64
2019-03-21T05:21:39.890Z,64
2019-03-21T05:22:20.514Z,68
2019-03-21T05:23:01.078Z,72
2019-03-21T05:23:41.643Z,76
2019-03-21T05:24:22.217Z,84
2019-03-21T05:25:02.841Z,84
2019-03-21T05:25:43.392Z,92
2019-03-21T05:26:23.944Z,92
2019-03-21T05:27:04.506Z,92
2019-03-21T05:27:45.074Z,96
2019-03-21T05:28:25.653Z,96
2019-03-21T05:29:06.217Z,104
2019-03-21T05:29:46.793Z,112
2019-03-21T05:30:27.358Z,112
2019-03-21T05:31:07.911Z,116
2019-03-21T05:31:48.477Z,120
2019-03-21T05:32:29.053Z,128
2019-03-21T05:33:09.609Z,132
2019-03-21T05:33:50.170Z,136
2019-03-21T05:34:30.722Z,136
2019-03-21T05:35:11.305Z,136
2019-03-21T05:35:51.952Z,140
2019-03-21T05:36:32.507Z,144
2019-03-21T05:37:13.067Z,148
2019-03-21T05:37:53.622Z,152
2019-03-21T05:38:34.179Z,160
2019-03-21T05:39:14.748Z,168
2019-03-21T05:39:55.301Z,180
2019-03-21T05:40:35.849Z,184
2019-03-21T05:41:16.436Z,188
2019-03-21T05:41:56.995Z,192
2019-03-21T05:42:37.556Z,200
2019-03-21T05:43:18.112Z,212
2019-03-21T05:43:58.703Z,220
2019-03-21T05:44:39.289Z,228
2019-03-21T05:45:19.847Z,236
2019-03-21T05:46:00.412Z,236
2019-03-21T05:46:40.976Z,240
2019-03-21T05:47:21.535Z,248
2019-03-21T05:48:02.110Z,260
2019-03-21T05:48:42.671Z,268
2019-03-21T05:49:23.421Z,272
2019-03-21T05:50:03.977Z,280
2019-03-21T05:50:44.559Z,284
2019-03-21T05:51:25.096Z,284
2019-03-21T05:52:05.669Z,284
2019-03-21T05:52:46.251Z,296
2019-03-21T05:53:26.807Z,320
2019-03-21T05:54:07.352Z,328
2019-03-21T05:54:47.928Z,328
2019-03-21T05:55:28.510Z,336
2019-03-21T05:56:09.078Z,336
2019-03-21T05:56:49.650Z,336
2019-03-21T05:57:30.205Z,336
2019-03-21T05:58:10.767Z,340
2019-03-21T05:58:51.343Z,348
2019-03-21T05:59:31.945Z,356
2019-03-21T06:00:12.570Z,360
2019-03-21T06:00:53.175Z,364
2019-03-21T06:01:33.734Z,364
2019-03-21T06:02:14.285Z,364
2019-03-21T06:02:54.841Z,360
2019-03-21T06:03:35.405Z,360
2019-03-21T06:04:16.027Z,360
2019-03-21T06:04:56.688Z,364
2019-03-21T06:05:37.254Z,368
2019-03-21T06:06:17.854Z,376
2019-03-21T06:06:58.423Z,384
2019-03-21T06:07:38.982Z,392
2019-03-21T06:08:19.525Z,396
2019-03-21T06:09:00.142Z,400
2019-03-21T06:09:40.783Z,404
2019-03-21T06:10:21.456Z,408
2019-03-21T06:11:02.021Z,416
2019-03-21T06:11:42.709Z,424
2019-03-21T06:12:23.377Z,432
2019-03-21T06:13:03.922Z,444
2019-03-21T06:13:44.501Z,452
2019-03-21T06:14:25.105Z,468
2019-03-21T06:15:05.732Z,488
2019-03-21T06:15:46.321Z,496
2019-03-21T06:16:37.158Z,512
2019-03-21T06:17:07.968Z,516
2019-03-21T06:17:48.595Z,516
2019-03-21T06:18:29.245Z,524
2019-03-21T06:19:09.899Z,532
2019-03-21T06:19:50.597Z,536
2019-03-21T06:20:31.142Z,532
2019-03-21T06:21:11.777Z,532
2019-03-21T06:21:52.347Z,540
2019-03-21T06:22:32.931Z,552
2019-03-21T06:23:13.530Z,556
2019-03-21T06:23:54.133Z,548
2019-03-21T06:24:34.728Z,540
2019-03-21T06:25:15.910Z,532
2019-03-21T06:25:56.120Z,520
2019-03-21T06:26:36.673Z,512
2019-03-21T06:27:17.224Z,512
2019-03-21T06:27:57.804Z,520
2019-03-21T06:28:38.392Z,520
2019-03-21T06:29:18.954Z,524
2019-03-21T06:29:59.508Z,540
2019-03-21T06:30:40.118Z,548
2019-03-21T06:31:20.750Z,548
2019-03-21T06:32:01.375Z,544
2019-03-21T06:32:41.971Z,544
2019-03-21T06:33:22.612Z,548
2019-03-21T06:34:03.231Z,540
2019-03-21T06:34:43.839Z,528
2019-03-21T06:35:24.456Z,508
2019-03-21T06:36:05.007Z,516
2019-03-21T06:36:45.564Z,520
2019-03-21T06:37:28.435Z,524
2019-03-21T06:38:06.696Z,524
2019-03-21T06:38:47.254Z,528
2019-03-21T06:39:29.767Z,540
2019-03-21T06:40:10.339Z,540
2019-03-21T06:40:50.906Z,548
2019-03-21T06:41:31.488Z,560
2019-03-21T06:42:12.074Z,568
2019-03-21T06:45:52.161Z,612
2019-03-21T06:46:32.850Z,624
2019-03-21T06:47:13.447Z,628
2019-03-21T06:48:00.619Z,636
2019-03-21T06:48:41.186Z,644
2019-03-21T06:53:42.839Z,644
2019-03-21T06:54:23.426Z,644
2019-03-21T06:55:04.060Z,656
2019-03-21T06:55:44.824Z,660
2019-03-21T06:56:25.454Z,672
2019-03-21T06:57:06.066Z,696
2019-03-21T06:57:46.649Z,716
2019-03-21T06:58:27.329Z,724
2019-03-21T06:59:07.961Z,728
2019-03-21T06:59:48.564Z,732
2019-03-21T07:00:29.159Z,736
2019-03-21T07:01:12.603Z,736
2019-03-21T07:01:54.962Z,740
2019-03-21T07:02:35.538Z,736
2019-03-21T07:03:16.465Z,732
2019-03-21T07:04:06.508Z,728
2019-03-21T07:04:37.251Z,724
2019-03-21T07:05:17.856Z,720
2019-03-21T07:05:58.662Z,712
2019-03-21T07:06:40.005Z,708
2019-03-21T07:07:20.633Z,724
2019-03-21T07:08:01.212Z,740
2019-03-21T07:08:43.507Z,748
2019-03-21T07:09:25.130Z,764
2019-03-21T07:10:05.905Z,792
2019-03-21T07:10:46.578Z,800
2019-03-21T07:13:16.236Z,872
2019-03-21T07:13:56.797Z,908
2019-03-21T07:14:37.740Z,932
2019-03-21T07:20:56.377Z,876
2019-03-21T07:21:36.941Z,856
2019-03-21T07:22:17.528Z,844
2019-03-21T07:22:58.091Z,848
2019-03-21T07:23:38.775Z,852
2019-03-21T07:24:19.547Z,876
2019-03-21T07:25:00.174Z,892
2019-03-21T07:25:42.096Z,896
2019-03-21T07:26:22.685Z,896
2019-03-21T07:27:03.274Z,888
2019-03-21T07:27:45.464Z,872
2019-03-21T07:28:26.298Z,880
2019-03-21T07:29:06.874Z,884
2019-03-21T07:29:47.426Z,912
2019-03-21T07:30:27.980Z,936
2019-03-21T07:31:11.140Z,956
2019-03-21T07:31:49.209Z,984
2019-03-21T07:32:33.421Z,992
2019-03-21T07:33:10.569Z,1016
2019-03-21T07:33:51.257Z,1048
2019-03-21T07:34:32.183Z,1076
2019-03-21T07:35:12.876Z,1104
2019-03-21T07:35:53.424Z,1120
2019-03-21T07:36:34.341Z,1124
2019-03-21T07:37:15.084Z,1128
2019-03-21T07:37:55.686Z,1132
2019-03-21T07:38:36.267Z,1136
2019-03-21T07:39:16.936Z,1124
2019-03-21T07:39:57.544Z,1096
2019-03-21T07:40:38.099Z,1060
2019-03-21T07:41:18.662Z,1032
2019-03-21T07:42:01.106Z,1020
2019-03-21T07:42:39.772Z,1016
2019-03-21T07:43:22.242Z,1012
2019-03-21T07:44:00.947Z,1000
2019-03-21T07:44:41.548Z,980
2019-03-21T07:45:22.077Z,972
2019-03-21T07:46:02.682Z,972
2019-03-21T07:46:43.255Z,952
2019-03-21T07:47:23.967Z,928
2019-03-21T07:50:54.042Z,984
2019-03-21T07:51:34.598Z,1016
2019-03-21T07:52:15.159Z,1052
2019-03-21T07:52:55.749Z,1080
2019-03-21T07:53:36.325Z,1120
2019-03-21T07:54:16.994Z,1164
2019-03-21T07:54:57.524Z,1216
2019-03-21T07:55:38.077Z,1260
2019-03-21T07:56:18.634Z,1300
2019-03-21T07:56:59.317Z,1336
2019-03-21T07:57:40.435Z,1352
2019-03-21T07:58:21.746Z,1332
2019-03-21T07:59:03.221Z,1316
2019-03-21T07:59:43.903Z,1280
2019-03-21T08:00:24.478Z,1224
2019-03-21T08:01:05.126Z,1216
2019-03-21T08:01:45.694Z,1224
2019-03-21T08:02:27.433Z,1192
2019-03-21T08:03:09.367Z,1124
2019-03-21T08:03:49.537Z,1064
2019-03-21T08:04:30.246Z,1100
2019-03-21T08:05:10.803Z,1136
2019-03-21T08:05:51.356Z,1132
2019-03-21T08:06:31.950Z,1128
2019-03-21T08:07:12.580Z,1108
2019-03-21T08:07:53.135Z,1076
2019-03-21T08:08:33.844Z,1072
2019-03-21T08:09:14.416Z,1072
2019-03-21T08:09:54.980Z,1068
2019-03-21T08:10:35.547Z,1076
2019-03-21T08:11:16.107Z,1112
2019-03-21T08:11:56.777Z,1144
2019-03-21T08:12:37.318Z,1160
2019-03-21T08:13:17.905Z,1152
2019-03-21T08:13:58.475Z,1152
2019-03-21T08:14:39.031Z,1168
2019-03-21T08:15:19.599Z,1200
2019-03-21T08:16:00.158Z,1252
2019-03-21T08:16:40.710Z,1288
2019-03-21T08:17:21.271Z,1304
2019-03-21T08:18:01.827Z,1316
2019-03-21T08:18:42.379Z,1324
2019-03-21T08:19:22.942Z,1344
2019-03-21T08:20:03.480Z,1384
2019-03-21T08:20:55.562Z,1412
2019-03-21T08:21:24.602Z,1436
2019-03-21T08:22:05.168Z,1460
2019-03-21T08:22:45.734Z,1468
2019-03-21T08:23:26.288Z,1476
2019-03-21T08:24:06.858Z,1488
2019-03-21T08:24:47.424Z,1512
2019-03-21T08:25:27.973Z,1548
2019-03-21T08:26:08.534Z,1588
2019-03-21T08:26:49.097Z,1620
2019-03-21T08:27:29.785Z,1644
2019-03-21T08:28:10.439Z,1680
2019-03-21T08:28:52.887Z,1700
2019-03-21T08:29:33.595Z,1736
2019-03-21T08:30:14.188Z,1756
2019-03-21T08:30:55.040Z,1752
2019-03-21T08:31:35.598Z,1756
2019-03-21T08:32:16.243Z,1784
2019-03-21T08:32:57.097Z,1760
2019-03-21T08:33:37.696Z,1712
2019-03-21T08:34:18.271Z,1696
2019-03-21T08:34:59.216Z,1672
2019-03-21T08:35:39.825Z,1660
2019-03-21T08:36:20.506Z,1616
2019-03-21T08:37:01.072Z,1600
2019-03-21T08:37:41.668Z,1576
2019-03-21T08:38:22.250Z,1532
2019-03-21T08:39:02.820Z,1544
2019-03-21T08:39:43.392Z,1556
2019-03-21T08:40:23.955Z,1540
2019-03-21T08:41:04.533Z,1544
2019-03-21T08:41:45.081Z,1544
2019-03-21T08:42:25.820Z,1572
2019-03-21T08:43:06.724Z,1588
2019-03-21T08:43:47.350Z,1576
2019-03-21T08:44:28.005Z,1612
2019-03-21T08:45:08.637Z,1628
2019-03-21T08:45:49.585Z,1652
2019-03-21T08:46:30.586Z,1708
2019-03-21T08:47:11.328Z,1712
2019-03-21T08:47:52.007Z,1740
2019-03-21T08:48:32.845Z,1756
2019-03-21T08:49:13.544Z,1756
2019-03-21T08:49:54.139Z,1768
2019-03-21T08:50:34.706Z,1800
2019-03-21T08:51:15.271Z,1840
2019-03-21T08:51:55.841Z,1884
2019-03-21T08:52:36.445Z,1928
2019-03-21T08:53:16.995Z,2004
2019-03-21T08:53:57.565Z,2048
2019-03-21T08:54:38.178Z,2104
2019-03-21T08:55:18.740Z,2136
2019-03-21T08:55:59.300Z,2168
2019-03-21T08:56:39.882Z,2172
2019-03-21T08:57:20.443Z,2156
2019-03-21T08:58:01.043Z,2156
2019-03-21T08:58:41.605Z,2180
2019-03-21T08:59:22.175Z,2224
2019-03-21T09:00:02.759Z,2280
2019-03-21T09:00:43.292Z,2336
2019-03-21T09:01:23.941Z,2400
2019-03-21T09:02:04.559Z,2460
2019-03-21T09:02:45.160Z,2456
2019-03-21T09:03:25.764Z,2452
2019-03-21T09:04:06.333Z,2464
2019-03-21T09:04:46.935Z,2476
2019-03-21T09:05:29.154Z,2484
2019-03-21T09:06:09.665Z,2484
2019-03-21T09:06:52.656Z,2464
2019-03-21T09:07:30.786Z,2396
2019-03-21T09:08:11.337Z,2272
2019-03-21T09:08:51.933Z,2248
2019-03-21T09:09:32.498Z,2236
2019-03-21T09:10:13.068Z,2264
2019-03-21T09:10:53.646Z,2292
2019-03-21T09:11:34.224Z,2292
2019-03-21T09:12:14.773Z,2244
2019-03-21T09:12:55.335Z,2324
2019-03-21T09:13:35.887Z,2400
2019-03-21T09:14:16.469Z,2400
2019-03-21T09:14:57.056Z,2380
2019-03-21T09:15:37.637Z,2408
2019-03-21T09:16:18.181Z,2420
2019-03-21T09:16:58.734Z,2464
2019-03-21T09:17:39.331Z,2500
2019-03-21T09:18:19.901Z,2584
2019-03-21T09:19:00.458Z,2680
2019-03-21T09:19:41.020Z,2720
2019-03-21T09:20:21.644Z,2740
2019-03-21T09:21:02.214Z,2712
2019-03-21T09:21:42.838Z,2656
2019-03-21T09:22:23.452Z,2600
2019-03-21T09:23:04.016Z,2568
2019-03-21T09:23:44.616Z,2576
2019-03-21T09:24:25.291Z,2612
2019-03-21T09:25:05.847Z,2628
2019-03-21T09:25:46.466Z,2592
2019-03-21T09:26:27.045Z,2572
2019-03-21T09:27:07.613Z,2560
2019-03-21T09:27:48.177Z,2540
2019-03-21T09:28:28.736Z,2540
2019-03-21T09:29:09.304Z,2508
2019-03-21T09:29:53.613Z,2492
2019-03-21T09:30:30.474Z,2468
2019-03-21T09:31:11.030Z,2440
2019-03-21T09:31:51.593Z,2432
2019-03-21T09:32:32.217Z,2396
2019-03-21T09:33:12.838Z,2372
2019-03-21T09:33:53.403Z,2372
2019-03-21T09:34:33.998Z,2408
2019-03-21T09:35:14.636Z,2388
2019-03-21T09:35:55.245Z,2376
2019-03-21T09:36:35.816Z,2360
2019-03-21T09:37:16.584Z,2320
2019-03-21T09:37:57.547Z,2304
2019-03-21T09:38:38.117Z,2336
2019-03-21T09:39:18.708Z,2384
2019-03-21T09:39:59.248Z,2400
2019-03-21T09:40:39.817Z,2408
2019-03-21T09:41:20.371Z,2380
2019-03-21T09:42:01.028Z,2376
2019-03-21T09:42:43.335Z,2420
2019-03-21T09:43:23.859Z,2456
2019-03-21T09:44:04.409Z,2416
2019-03-21T09:44:45.067Z,2412
2019-03-21T09:45:25.667Z,2396
2019-03-21T09:46:06.243Z,2400
2019-03-21T09:46:50.955Z,2400
2019-03-21T09:47:27.364Z,2384
2019-03-21T09:48:08.105Z,2360
2019-03-21T09:48:48.646Z,2324
2019-03-21T09:49:29.307Z,2264
2019-03-21T09:50:09.835Z,2276
2019-03-21T09:50:50.417Z,2316
2019-03-21T09:51:31.298Z,2352
2019-03-21T09:52:11.573Z,2384
2019-03-21T09:52:52.129Z,2428
2019-03-21T09:53:32.717Z,2436
2019-03-21T09:54:13.274Z,2404